createdAt,value
2019-05-19T00:01:35.142Z,0.75
2019-05-19T00:04:07.322Z,0.40
2019-05-19T00:06:40.214Z,0.70
2019-05-19T00:09:12.922Z,0.60
2019-05-19T00:11:45.046Z,0.90
2019-05-19T00:14:17.933Z,0.70
2019-05-19T00:16:50.399Z,0.82
2019-05-19T00:19:26.800Z,0.70
2019-05-19T00:21:56.767Z,0.60
2019-05-19T00:24:29.122Z,0.80
2019-05-19T00:27:01.299Z,0.53
2019-05-19T00:29:33.771Z,0.62
2019-05-19T00:32:06.023Z,0.90
2019-05-19T00:34:38.368Z,0.65
2019-05-19T00:37:10.637Z,0.55
2019-05-19T00:39:42.922Z,0.50
2019-05-19T00:42:15.216Z,0.70
2019-05-19T00:44:47.489Z,0.75
2019-05-19T00:47:19.724Z,0.70
2019-05-19T00:49:52.009Z,0.75
2019-05-19T00:52:24.150Z,0.50
2019-05-19T00:54:56.326Z,0.57
2019-05-19T00:57:30.086Z,0.65
2019-05-19T01:00:03.227Z,0.50
2019-05-19T01:02:35.601Z,0.70
2019-05-19T01:05:11.794Z,0.50
2019-05-19T01:07:44.044Z,0.75
2019-05-19T01:10:16.300Z,0.80
2019-05-19T01:12:48.651Z,0.68
2019-05-19T01:15:21.137Z,0.57
2019-05-19T01:17:53.936Z,0.70
2019-05-19T01:20:26.090Z,0.80
2019-05-19T01:22:58.254Z,0.65
2019-05-19T01:25:32.288Z,0.68
2019-05-19T01:28:07.912Z,0.80
2019-05-19T01:30:39.940Z,0.50
2019-05-19T01:33:12.176Z,0.50
2019-05-19T01:35:44.570Z,0.80
2019-05-19T01:38:16.852Z,1.00
2019-05-19T01:40:49.288Z,0.70
2019-05-19T01:43:21.715Z,0.62
2019-05-19T01:45:53.870Z,0.50
2019-05-19T01:48:28.140Z,0.82
2019-05-19T01:51:00.727Z,0.72
2019-05-19T01:53:33.350Z,0.60
2019-05-19T01:56:05.797Z,0.80
2019-05-19T01:58:38.191Z,0.70
2019-05-19T02:01:10.471Z,0.65
2019-05-19T02:03:42.651Z,0.85
2019-05-19T02:06:15.257Z,0.90
2019-05-19T02:08:50.614Z,0.70
2019-05-19T02:11:23.486Z,1.20
2019-05-19T02:13:55.608Z,0.72
2019-05-19T02:16:27.735Z,0.90
2019-05-19T02:19:00.103Z,0.82
2019-05-19T02:21:32.408Z,0.98
2019-05-19T02:24:04.556Z,1.00
2019-05-19T02:26:36.880Z,0.90
2019-05-19T02:29:09.008Z,0.62
2019-05-19T02:31:41.201Z,0.70
2019-05-19T02:34:13.483Z,0.68
2019-05-19T02:36:45.745Z,0.60
2019-05-19T02:39:18.221Z,0.50
2019-05-19T02:41:53.909Z,0.82
2019-05-19T02:44:29.084Z,0.60
2019-05-19T02:47:04.203Z,0.80
2019-05-19T02:49:38.536Z,0.62
2019-05-19T02:52:13.925Z,0.82
2019-05-19T02:54:46.545Z,0.70
2019-05-19T02:57:19.727Z,0.62
2019-05-19T02:59:52.213Z,0.50
2019-05-19T03:02:24.551Z,0.80
2019-05-19T03:04:56.725Z,0.57
2019-05-19T03:07:28.903Z,0.65
2019-05-19T03:10:04.788Z,0.57
2019-05-19T03:12:36.951Z,0.68
2019-05-19T03:15:09.918Z,0.40
2019-05-19T03:17:42.052Z,0.55
2019-05-19T03:20:15.720Z,0.53
2019-05-19T03:22:47.850Z,0.60
2019-05-19T03:25:20.014Z,0.68
2019-05-19T03:27:52.528Z,0.50
2019-05-19T03:30:34.414Z,0.30
2019-05-19T03:33:07.160Z,0.53
2019-05-19T03:35:39.584Z,0.70
2019-05-19T03:38:11.735Z,0.45
2019-05-19T03:40:44.010Z,0.62
2019-05-19T03:43:16.236Z,0.60
2019-05-19T03:45:48.831Z,0.57
2019-05-19T03:48:21.135Z,0.80
2019-05-19T03:50:53.815Z,0.53
2019-05-19T03:53:26.087Z,0.72
2019-05-19T03:55:58.376Z,0.72
2019-05-19T03:58:30.615Z,0.80
2019-05-19T04:01:02.893Z,0.80
2019-05-19T04:03:35.138Z,0.80
2019-05-19T04:06:07.336Z,0.55
2019-05-19T04:08:39.842Z,0.40
2019-05-19T04:11:14.528Z,0.47
2019-05-19T04:13:46.934Z,0.50
2019-05-19T04:16:19.334Z,0.40
2019-05-19T04:18:51.484Z,0.60
2019-05-19T04:21:24.094Z,0.50
2019-05-19T04:23:56.383Z,0.50
2019-05-19T04:26:28.755Z,0.60
2019-05-19T04:29:01.369Z,0.60
2019-05-19T04:31:33.508Z,0.40
2019-05-19T04:34:05.875Z,0.60
2019-05-19T04:36:38.040Z,0.23
2019-05-19T04:39:10.990Z,0.45
2019-05-19T04:41:43.072Z,0.40
2019-05-19T04:44:15.218Z,0.33
2019-05-19T04:46:47.493Z,0.72
2019-05-19T04:49:19.749Z,0.47
2019-05-19T04:52:06.230Z,0.65
2019-05-19T04:54:25.828Z,0.70
2019-05-19T04:56:58.111Z,0.50
2019-05-19T04:59:30.755Z,0.70
2019-05-19T05:02:03.130Z,0.70
2019-05-19T05:04:35.409Z,0.75
2019-05-19T05:07:07.485Z,1.07
2019-05-19T05:09:39.897Z,0.57
2019-05-19T05:12:12.017Z,0.80
2019-05-19T05:14:44.400Z,0.60
2019-05-19T05:17:16.690Z,0.80
2019-05-19T05:19:49.054Z,0.60
2019-05-19T05:22:22.526Z,0.60
2019-05-19T05:24:54.981Z,0.70
2019-05-19T05:27:27.166Z,0.88
2019-05-19T05:29:59.360Z,1.50
2019-05-19T05:32:31.523Z,1.12
2019-05-19T05:35:04.210Z,1.30
2019-05-19T05:37:36.446Z,1.20
2019-05-19T05:40:09.836Z,1.00
2019-05-19T05:42:42.490Z,0.80
2019-05-19T05:45:15.726Z,1.00
2019-05-19T05:47:48.187Z,0.60
2019-05-19T05:50:20.451Z,1.15
2019-05-19T05:52:52.681Z,0.90
2019-05-19T05:55:24.931Z,1.07
2019-05-19T05:57:57.073Z,0.70
2019-05-19T06:00:29.343Z,0.75
2019-05-19T06:03:01.475Z,0.70
2019-05-19T06:05:33.790Z,0.53
2019-05-19T06:08:10.425Z,0.85
2019-05-19T06:10:42.729Z,0.90
2019-05-19T06:13:15.146Z,0.70
2019-05-19T06:15:47.328Z,0.53
2019-05-19T06:18:19.576Z,1.10
2019-05-19T06:20:51.754Z,1.02
2019-05-19T06:23:24.028Z,0.78
2019-05-19T06:25:56.426Z,0.93
2019-05-19T06:28:28.788Z,0.78
2019-05-19T06:31:01.004Z,0.55
2019-05-19T06:33:33.258Z,0.85
2019-05-19T06:36:05.445Z,1.20
2019-05-19T06:38:37.619Z,1.00
2019-05-19T06:41:10.092Z,0.70
2019-05-19T06:43:42.316Z,0.80
2019-05-19T06:46:14.530Z,0.80
2019-05-19T06:48:46.816Z,0.90
2019-05-19T06:51:19.051Z,1.00
2019-05-19T06:53:51.205Z,0.90
2019-05-19T06:56:23.670Z,1.20
2019-05-19T06:58:56.016Z,1.12
2019-05-19T07:01:28.475Z,0.85
2019-05-19T07:04:00.684Z,0.80
2019-05-19T07:06:34.274Z,0.70
2019-05-19T07:09:08.835Z,1.00
2019-05-19T07:11:41.006Z,0.80
2019-05-19T07:14:13.240Z,0.90
2019-05-19T07:16:45.665Z,1.27
2019-05-19T07:19:17.686Z,1.00
2019-05-19T07:21:50.773Z,0.80
2019-05-19T07:24:22.974Z,0.75
2019-05-19T07:26:55.207Z,0.80
2019-05-19T07:29:27.338Z,1.40
2019-05-19T07:31:59.414Z,1.85
2019-05-19T07:34:31.900Z,1.50
2019-05-19T07:37:04.283Z,1.45
2019-05-19T07:39:36.449Z,1.50
2019-05-19T07:42:09.055Z,1.80
2019-05-19T07:44:41.234Z,1.25
2019-05-19T07:47:13.740Z,1.02
2019-05-19T07:49:46.083Z,1.07
2019-05-19T07:52:18.457Z,1.30
2019-05-19T07:54:52.457Z,1.10
2019-05-19T07:57:24.614Z,1.42
2019-05-19T07:59:58.773Z,1.00
2019-05-19T08:02:31.039Z,1.30
2019-05-19T08:05:03.427Z,0.80
2019-05-19T08:07:35.629Z,1.27
2019-05-19T08:10:10.212Z,1.10
2019-05-19T08:12:42.650Z,0.82
2019-05-19T08:15:15.118Z,1.22
2019-05-19T08:17:47.237Z,1.25
2019-05-19T08:20:20.931Z,1.17
2019-05-19T08:22:53.251Z,1.30
2019-05-19T08:25:25.581Z,1.55
2019-05-19T08:28:07.437Z,1.20
2019-05-19T08:30:33.280Z,0.80
2019-05-19T08:33:05.710Z,1.00
2019-05-19T08:35:38.116Z,1.30
2019-05-19T08:38:10.288Z,0.95
2019-05-19T08:40:42.643Z,1.20
2019-05-19T08:43:15.098Z,1.10
2019-05-19T08:45:47.523Z,0.93
2019-05-19T08:48:19.776Z,1.05
2019-05-19T08:50:51.923Z,0.88
2019-05-19T08:53:24.629Z,1.07
2019-05-19T08:55:57.432Z,0.78
2019-05-19T08:58:29.908Z,1.12
2019-05-19T09:01:02.783Z,0.70
2019-05-19T09:03:35.358Z,1.05
2019-05-19T09:06:07.936Z,1.00
2019-05-19T09:08:40.388Z,1.05
2019-05-19T09:11:12.957Z,0.80
2019-05-19T09:13:45.452Z,0.93
2019-05-19T09:16:17.752Z,0.62
2019-05-19T09:18:50.519Z,1.05
2019-05-19T09:21:22.855Z,1.00
2019-05-19T09:23:55.059Z,1.15
2019-05-19T09:26:27.397Z,1.30
2019-05-19T09:28:59.632Z,1.00
2019-05-19T09:31:32.202Z,0.90
2019-05-19T09:34:04.508Z,1.00
2019-05-19T09:36:36.774Z,0.57
2019-05-19T09:39:09.849Z,0.90
2019-05-19T09:41:42.118Z,1.10
2019-05-19T09:44:14.332Z,1.00
2019-05-19T09:46:46.407Z,0.65
2019-05-19T09:49:34.539Z,0.70
2019-05-19T09:52:08.130Z,0.80
2019-05-19T09:54:45.111Z,0.40
2019-05-19T09:57:14.963Z,0.60
2019-05-19T09:59:47.262Z,0.53
2019-05-19T10:02:19.319Z,1.00
2019-05-19T10:04:51.560Z,0.60
2019-05-19T10:07:23.873Z,0.50
2019-05-19T10:10:17.384Z,0.78
2019-05-19T10:12:52.640Z,0.78
2019-05-19T10:15:25.680Z,1.00
2019-05-19T10:17:58.140Z,1.45
2019-05-19T10:20:30.304Z,1.30
2019-05-19T10:23:02.469Z,1.20
2019-05-19T10:25:34.702Z,0.95
2019-05-19T10:28:06.972Z,0.80
2019-05-19T10:30:39.115Z,0.75
2019-05-19T10:33:11.380Z,1.02
2019-05-19T10:35:45.038Z,0.88
2019-05-19T10:38:18.668Z,0.90
2019-05-19T10:40:53.208Z,0.62
2019-05-19T10:43:26.476Z,0.60
2019-05-19T10:46:02.279Z,0.90
2019-05-19T10:48:35.604Z,1.00
2019-05-19T10:51:08.758Z,0.57
2019-05-19T10:53:40.994Z,1.00
2019-05-19T10:56:13.149Z,0.80
2019-05-19T10:58:45.803Z,1.20
2019-05-19T11:01:18.299Z,0.93
2019-05-19T11:03:50.668Z,0.90
2019-05-19T11:06:23.066Z,0.85
2019-05-19T11:08:55.226Z,1.10
2019-05-19T11:11:29.427Z,1.20
2019-05-19T11:14:04.586Z,1.25
2019-05-19T11:16:36.856Z,1.30
2019-05-19T11:19:09.327Z,0.93
2019-05-19T11:21:41.573Z,1.25
2019-05-19T11:24:13.793Z,0.93
2019-05-19T11:26:46.123Z,1.07
2019-05-19T11:29:18.250Z,1.05
2019-05-19T11:31:50.454Z,1.00
2019-05-19T11:34:22.631Z,1.15
2019-05-19T11:36:54.890Z,1.10
2019-05-19T11:39:27.165Z,1.50
2019-05-19T11:41:59.357Z,1.10
2019-05-19T11:44:31.888Z,1.50
2019-05-19T11:47:04.206Z,1.40
2019-05-19T11:49:36.474Z,1.45
2019-05-19T11:52:09.014Z,1.20
2019-05-19T11:54:41.222Z,0.90
2019-05-19T11:57:13.284Z,0.98
2019-05-19T11:59:45.650Z,1.50
2019-05-19T12:02:17.906Z,1.55
2019-05-19T12:04:50.050Z,1.50
2019-05-19T12:07:22.339Z,1.90
2019-05-19T12:09:54.532Z,1.72
2019-05-19T12:12:26.745Z,2.08
2019-05-19T12:14:58.942Z,1.27
2019-05-19T12:17:30.989Z,1.72
2019-05-19T12:20:03.183Z,1.98
2019-05-19T12:22:35.870Z,1.80
2019-05-19T12:25:08.592Z,1.40
2019-05-19T12:27:41.009Z,1.50
2019-05-19T12:30:19.309Z,1.60
2019-05-19T12:32:51.893Z,1.62
2019-05-19T12:35:24.662Z,1.75
2019-05-19T12:37:57.012Z,1.67
2019-05-19T12:40:29.211Z,1.45
2019-05-19T12:43:01.405Z,1.60
2019-05-19T12:45:33.970Z,1.80
2019-05-19T12:48:06.643Z,1.70
2019-05-19T12:50:38.891Z,1.87
2019-05-19T12:53:11.052Z,1.45
2019-05-19T12:55:43.712Z,1.65
2019-05-19T12:58:15.948Z,2.05
2019-05-19T13:00:48.272Z,1.70
2019-05-19T13:03:20.447Z,1.47
2019-05-19T13:05:52.793Z,1.67
2019-05-19T13:08:25.101Z,1.55
2019-05-19T13:10:59.944Z,2.00
2019-05-19T13:13:32.773Z,1.77
2019-05-19T13:16:06.030Z,1.30
2019-05-19T13:18:38.324Z,1.80
2019-05-19T13:21:10.656Z,1.70
2019-05-19T13:23:42.830Z,1.67
2019-05-19T13:26:15.148Z,1.40
2019-05-19T13:28:47.630Z,1.50
2019-05-19T13:31:19.956Z,1.80
2019-05-19T13:33:52.196Z,1.57
2019-05-19T13:36:24.577Z,2.00
2019-05-19T13:38:56.897Z,1.60
2019-05-19T13:41:29.224Z,2.00
2019-05-19T13:44:04.268Z,1.50
2019-05-19T13:46:36.546Z,1.90
2019-05-19T13:49:08.692Z,2.10
2019-05-19T13:51:40.936Z,1.87
2019-05-19T13:54:13.214Z,1.80
2019-05-19T13:56:45.372Z,1.80
2019-05-19T13:59:17.721Z,1.70
2019-05-19T14:01:49.958Z,1.95
2019-05-19T14:04:22.320Z,1.75
2019-05-19T14:06:54.690Z,2.10
2019-05-19T14:09:28.061Z,2.10
2019-05-19T14:12:00.318Z,2.10
2019-05-19T14:14:32.604Z,1.80
2019-05-19T14:17:05.220Z,2.10
2019-05-19T14:19:37.546Z,2.25
2019-05-19T14:22:10.205Z,1.98
2019-05-19T14:24:42.421Z,2.22
2019-05-19T14:27:28.736Z,2.17
2019-05-19T14:29:49.078Z,1.80
2019-05-19T14:32:21.355Z,1.60
2019-05-19T14:34:53.507Z,1.60
2019-05-19T14:37:25.748Z,1.70
2019-05-19T14:39:58.005Z,2.00
2019-05-19T14:42:49.731Z,2.10
2019-05-19T14:45:22.234Z,2.12
2019-05-19T14:47:54.639Z,2.20
2019-05-19T14:50:27.078Z,2.00
2019-05-19T14:52:59.365Z,2.20
2019-05-19T14:55:31.631Z,2.17
2019-05-19T14:58:03.800Z,1.90
2019-05-19T15:00:36.091Z,1.90
2019-05-19T15:03:08.437Z,1.80
2019-05-19T15:05:40.630Z,2.02
2019-05-19T15:08:12.670Z,1.92
2019-05-19T15:10:46.351Z,1.82
2019-05-19T15:13:21.924Z,1.52
2019-05-19T15:15:57.930Z,1.42
2019-05-19T15:18:29.829Z,2.00
2019-05-19T15:21:02.115Z,1.75
2019-05-19T15:23:34.233Z,2.02
2019-05-19T15:26:06.585Z,1.70
2019-05-19T15:28:38.794Z,2.20
2019-05-19T15:31:10.983Z,1.90
2019-05-19T15:33:43.277Z,1.60
2019-05-19T15:36:15.590Z,1.82
2019-05-19T15:38:48.253Z,1.60
2019-05-19T15:41:20.671Z,2.00
2019-05-19T15:43:52.904Z,1.80
2019-05-19T15:46:25.115Z,1.72
2019-05-19T15:48:57.293Z,1.90
2019-05-19T15:51:36.880Z,1.80
2019-05-19T15:54:03.416Z,1.60
2019-05-19T15:56:35.873Z,1.70
2019-05-19T15:59:08.266Z,1.60
2019-05-19T16:01:40.840Z,1.77
2019-05-19T16:04:13.392Z,1.50
2019-05-19T16:06:45.577Z,1.30
2019-05-19T16:09:18.247Z,1.75
2019-05-19T16:11:50.700Z,1.50
2019-05-19T16:14:23.045Z,2.00
2019-05-19T16:16:55.274Z,1.98
2019-05-19T16:19:27.613Z,2.05
2019-05-19T16:21:59.949Z,1.92
2019-05-19T16:24:32.111Z,2.08
2019-05-19T16:27:04.382Z,1.90
2019-05-19T16:29:36.588Z,2.30
2019-05-19T16:32:08.790Z,2.60
2019-05-19T16:34:41.124Z,2.10
2019-05-19T16:37:13.285Z,2.10
2019-05-19T16:39:45.582Z,2.33
2019-05-19T16:42:17.778Z,2.25
2019-05-19T16:44:49.940Z,1.80
2019-05-19T16:47:22.240Z,1.70
2019-05-19T16:49:54.369Z,1.98
2019-05-19T16:52:26.776Z,1.87
2019-05-19T16:55:16.003Z,1.85
2019-05-19T16:57:48.288Z,2.20
2019-05-19T17:00:20.860Z,1.90
2019-05-19T17:02:53.164Z,1.98
2019-05-19T17:05:25.493Z,1.90
2019-05-19T17:07:57.690Z,1.82
2019-05-19T17:10:30.052Z,2.20
2019-05-19T17:13:02.212Z,2.30
2019-05-19T17:15:34.408Z,2.05
2019-05-19T17:18:08.298Z,1.70
2019-05-19T17:20:40.605Z,1.70
2019-05-19T17:23:12.894Z,1.50
2019-05-19T17:25:45.110Z,1.52
2019-05-19T17:28:17.257Z,1.60
2019-05-19T17:30:49.544Z,1.40
2019-05-19T17:33:21.720Z,2.00
2019-05-19T17:35:53.943Z,1.65
2019-05-19T17:38:26.280Z,2.08
2019-05-19T17:40:58.462Z,1.75
2019-05-19T17:43:30.659Z,1.70
2019-05-19T17:46:02.967Z,1.50
2019-05-19T17:48:35.141Z,1.90
2019-05-19T17:51:11.255Z,2.10
2019-05-19T17:53:44.512Z,1.82
2019-05-19T17:56:18.131Z,1.67
2019-05-19T17:58:50.389Z,1.40
2019-05-19T18:01:23.314Z,1.65
2019-05-19T18:03:56.309Z,1.70
2019-05-19T18:06:29.856Z,1.72
2019-05-19T18:09:02.556Z,1.67
2019-05-19T18:11:34.874Z,1.37
2019-05-19T18:14:07.110Z,1.42
2019-05-19T18:16:39.608Z,1.35
2019-05-19T18:19:11.985Z,1.62
2019-05-19T18:21:44.260Z,1.40
2019-05-19T18:24:16.442Z,1.52
2019-05-19T18:26:48.587Z,1.70
2019-05-19T18:29:30.930Z,2.02
2019-05-19T18:31:54.884Z,1.40
2019-05-19T18:34:27.115Z,1.70
2019-05-19T18:36:59.302Z,1.40
2019-05-19T18:39:31.937Z,1.35
2019-05-19T18:42:04.576Z,1.90
2019-05-19T18:44:37.073Z,1.60
2019-05-19T18:47:09.326Z,1.50
2019-05-19T18:49:41.724Z,1.55
2019-05-19T18:52:14.108Z,1.47
2019-05-19T18:54:46.262Z,1.30
2019-05-19T18:57:18.441Z,1.22
2019-05-19T18:59:50.821Z,1.22
2019-05-19T19:02:23.525Z,1.50
2019-05-19T19:04:56.387Z,1.12
2019-05-19T19:07:46.122Z,1.27
2019-05-19T19:10:18.837Z,1.30
2019-05-19T19:12:51.005Z,1.30
2019-05-19T19:15:23.202Z,1.37
2019-05-19T19:17:55.397Z,1.30
2019-05-19T19:20:27.607Z,1.45
2019-05-19T19:22:59.880Z,1.57
2019-05-19T19:25:32.208Z,1.75
2019-05-19T19:28:04.477Z,1.98
2019-05-19T19:30:37.047Z,1.70
2019-05-19T19:33:11.726Z,1.45
2019-05-19T19:35:44.398Z,1.42
2019-05-19T19:38:17.250Z,1.20
2019-05-19T19:40:49.748Z,1.30
2019-05-19T19:43:22.040Z,1.32
2019-05-19T19:45:54.704Z,1.30
2019-05-19T19:48:27.204Z,1.60
2019-05-19T19:50:59.468Z,1.52
2019-05-19T19:53:35.256Z,1.70
2019-05-19T19:56:08.423Z,1.37
2019-05-19T19:58:40.786Z,1.27
2019-05-19T20:01:13.005Z,1.42
2019-05-19T20:03:45.547Z,1.27
2019-05-19T20:06:18.248Z,1.40
2019-05-19T20:08:50.555Z,1.45
2019-05-19T20:11:22.799Z,1.10
2019-05-19T20:13:55.145Z,1.25
2019-05-19T20:16:27.563Z,1.42
2019-05-19T20:21:37.794Z,1.72
2019-05-19T20:24:10.101Z,1.30
2019-05-19T20:26:42.685Z,1.57
2019-05-19T20:29:14.884Z,1.50
2019-05-19T20:31:46.906Z,1.35
2019-05-19T20:34:19.192Z,1.50
2019-05-19T20:36:51.407Z,1.35
2019-05-19T20:39:23.720Z,1.50
2019-05-19T20:41:56.008Z,1.50
2019-05-19T20:44:28.379Z,1.37
2019-05-19T20:47:00.682Z,1.50
2019-05-19T20:49:32.981Z,1.40
2019-05-19T20:52:05.288Z,1.25
2019-05-19T20:54:37.563Z,1.40
2019-05-19T20:57:09.752Z,1.45
2019-05-19T20:59:41.969Z,1.60
2019-05-19T21:02:14.349Z,1.40
2019-05-19T21:04:46.483Z,1.70
2019-05-19T21:07:18.747Z,1.50
2019-05-19T21:09:51.326Z,1.22
2019-05-19T21:12:23.606Z,1.50
2019-05-19T21:14:55.698Z,1.50
2019-05-19T21:17:27.952Z,1.60
2019-05-19T21:20:00.318Z,1.80
2019-05-19T21:22:32.712Z,1.60
2019-05-19T21:25:05.153Z,1.30
2019-05-19T21:27:37.890Z,1.50
2019-05-19T21:30:11.250Z,1.52
2019-05-19T21:32:43.844Z,1.30
2019-05-19T21:35:16.019Z,1.32
2019-05-19T21:37:48.807Z,1.50
2019-05-19T21:40:21.398Z,1.17
2019-05-19T21:42:53.560Z,1.20
2019-05-19T21:45:25.890Z,1.30
2019-05-19T21:47:59.988Z,1.30
2019-05-19T21:50:32.569Z,1.50
2019-05-19T21:53:06.631Z,1.32
2019-05-19T21:55:39.954Z,1.35
2019-05-19T21:58:12.392Z,1.30
2019-05-19T22:00:45.584Z,1.20
2019-05-19T22:03:18.001Z,1.17
2019-05-19T22:05:53.216Z,1.00
2019-05-19T22:08:24.695Z,1.20
2019-05-19T22:10:57.124Z,1.10
2019-05-19T22:13:29.748Z,1.07
2019-05-19T22:16:12.128Z,1.27
2019-05-19T22:18:36.977Z,1.10
2019-05-19T22:21:09.335Z,1.10
2019-05-19T22:23:41.895Z,1.07
2019-05-19T22:26:14.119Z,1.40
2019-05-19T22:28:46.330Z,1.37
2019-05-19T22:31:18.631Z,1.22
2019-05-19T22:33:50.968Z,1.10
2019-05-19T22:36:23.167Z,1.40
2019-05-19T22:38:55.499Z,0.95
2019-05-19T22:41:27.653Z,1.35
2019-05-19T22:43:59.871Z,1.10
2019-05-19T22:46:31.970Z,1.22
2019-05-19T22:49:04.149Z,1.15
2019-05-19T22:51:36.340Z,0.98
2019-05-19T22:54:08.814Z,1.10
2019-05-19T22:56:41.207Z,1.10
2019-05-19T22:59:19.647Z,1.00
2019-05-19T23:01:51.845Z,1.35
2019-05-19T23:04:21.416Z,1.10
2019-05-19T23:06:54.017Z,1.07
2019-05-19T23:09:26.207Z,1.00
2019-05-19T23:11:58.492Z,1.07
2019-05-19T23:14:30.628Z,1.10
2019-05-19T23:17:02.778Z,1.17
2019-05-19T23:19:36.182Z,1.00
2019-05-19T23:22:08.392Z,1.30
2019-05-19T23:24:40.713Z,1.00
2019-05-19T23:27:12.990Z,1.00
2019-05-19T23:29:45.084Z,1.20
2019-05-19T23:32:17.710Z,1.47
2019-05-19T23:34:49.898Z,0.95
2019-05-19T23:37:22.400Z,1.92
2019-05-19T23:39:54.664Z,2.15
2019-05-19T23:42:27.222Z,2.22
2019-05-19T23:44:59.514Z,1.90
2019-05-19T23:47:32.613Z,1.80
2019-05-19T23:50:05.118Z,1.40
2019-05-19T23:52:37.355Z,1.40
2019-05-19T23:55:09.694Z,1.30
2019-05-19T23:57:41.938Z,1.20
